sensor_id;sensor_type;location;lat;lon;timestamp;P1;durP1;ratioP1;P2;durP2;ratioP2
44816;SDS011;30529;53.570;9.964;2023-01-30T00:00:58;34.83;;;19.40;;
44816;SDS011;30529;53.570;9.964;2023-01-30T00:03:26;33.80;;;20.17;;
44816;SDS011;30529;53.570;9.964;2023-01-30T00:05:52;31.30;;;19.87;;
44816;SDS011;30529;53.570;9.964;2023-01-30T00:08:18;35.03;;;20.90;;
44816;SDS011;30529;53.570;9.964;2023-01-30T00:10:45;36.30;;;21.30;;
44816;SDS011;30529;53.570;9.964;2023-01-30T00:13:12;35.57;;;20.97;;
44816;SDS011;30529;53.570;9.964;2023-01-30T00:15:39;36.30;;;20.23;;
44816;SDS011;30529;53.570;9.964;2023-01-30T00:18:05;36.70;;;20.73;;
44816;SDS011;30529;53.570;9.964;2023-01-30T00:20:32;35.30;;;20.93;;
44816;SDS011;30529;53.570;9.964;2023-01-30T00:22:58;35.03;;;20.73;;
44816;SDS011;30529;53.570;9.964;2023-01-30T00:25:25;33.17;;;20.50;;
44816;SDS011;30529;53.570;9.964;2023-01-30T00:27:51;37.27;;;21.33;;
44816;SDS011;30529;53.570;9.964;2023-01-30T00:30:17;39.23;;;20.00;;
44816;SDS011;30529;53.570;9.964;2023-01-30T00:32:44;35.67;;;21.30;;
44816;SDS011;30529;53.570;9.964;2023-01-30T00:35:10;37.23;;;20.67;;
44816;SDS011;30529;53.570;9.964;2023-01-30T00:37:36;35.67;;;20.23;;
44816;SDS011;30529;53.570;9.964;2023-01-30T00:40:02;34.57;;;20.97;;
44816;SDS011;30529;53.570;9.964;2023-01-30T00:42:28;36.70;;;20.90;;
44816;SDS011;30529;53.570;9.964;2023-01-30T00:45:13;33.90;;;20.20;;
44816;SDS011;30529;53.570;9.964;2023-01-30T00:47:58;36.77;;;20.63;;
44816;SDS011;30529;53.570;9.964;2023-01-30T00:50:25;34.90;;;19.50;;
44816;SDS011;30529;53.570;9.964;2023-01-30T00:53:08;39.97;;;19.00;;
44816;SDS011;30529;53.570;9.964;2023-01-30T00:55:35;35.70;;;19.50;;
44816;SDS011;30529;53.570;9.964;2023-01-30T00:58:01;37.90;;;19.37;;
44816;SDS011;30529;53.570;9.964;2023-01-30T01:00:27;34.50;;;20.50;;
44816;SDS011;30529;53.570;9.964;2023-01-30T01:02:53;34.50;;;18.87;;
44816;SDS011;30529;53.570;9.964;2023-01-30T01:05:19;34.67;;;19.33;;
44816;SDS011;30529;53.570;9.964;2023-01-30T01:07:45;34.73;;;19.77;;
44816;SDS011;30529;53.570;9.964;2023-01-30T01:10:11;33.83;;;20.00;;
44816;SDS011;30529;53.570;9.964;2023-01-30T01:12:41;32.97;;;18.70;;
44816;SDS011;30529;53.570;9.964;2023-01-30T01:15:09;33.23;;;18.27;;
44816;SDS011;30529;53.570;9.964;2023-01-30T01:17:40;31.17;;;18.60;;
44816;SDS011;30529;53.570;9.964;2023-01-30T01:20:07;29.47;;;18.13;;
44816;SDS011;30529;53.570;9.964;2023-01-30T01:22:33;33.17;;;17.83;;
44816;SDS011;30529;53.570;9.964;2023-01-30T01:24:59;29.63;;;17.73;;
44816;SDS011;30529;53.570;9.964;2023-01-30T01:27:25;28.73;;;17.27;;
44816;SDS011;30529;53.570;9.964;2023-01-30T01:29:52;32.50;;;18.07;;
44816;SDS011;30529;53.570;9.964;2023-01-30T01:32:19;28.77;;;17.13;;
44816;SDS011;30529;53.570;9.964;2023-01-30T01:34:45;27.60;;;17.77;;
44816;SDS011;30529;53.570;9.964;2023-01-30T01:37:11;29.07;;;17.27;;
44816;SDS011;30529;53.570;9.964;2023-01-30T01:39:37;30.07;;;18.00;;
44816;SDS011;30529;53.570;9.964;2023-01-30T01:42:23;34.80;;;17.90;;
44816;SDS011;30529;53.570;9.964;2023-01-30T01:47:39;30.67;;;17.43;;
44816;SDS011;30529;53.570;9.964;2023-01-30T01:53:16;28.53;;;17.63;;
44816;SDS011;30529;53.570;9.964;2023-01-30T01:55:45;29.63;;;17.00;;
44816;SDS011;30529;53.570;9.964;2023-01-30T01:58:23;30.17;;;17.27;;
44816;SDS011;30529;53.570;9.964;2023-01-30T02:00:59;29.57;;;16.87;;
44816;SDS011;30529;53.570;9.964;2023-01-30T02:03:27;25.03;;;15.10;;
44816;SDS011;30529;53.570;9.964;2023-01-30T02:05:57;27.33;;;16.97;;
44816;SDS011;30529;53.570;9.964;2023-01-30T02:08:34;31.13;;;17.17;;
44816;SDS011;30529;53.570;9.964;2023-01-30T02:11:08;28.97;;;17.00;;
44816;SDS011;30529;53.570;9.964;2023-01-30T02:13:44;29.50;;;17.03;;
44816;SDS011;30529;53.570;9.964;2023-01-30T02:16:11;29.03;;;16.27;;
44816;SDS011;30529;53.570;9.964;2023-01-30T02:18:39;28.10;;;16.43;;
44816;SDS011;30529;53.570;9.964;2023-01-30T02:24:15;27.47;;;16.23;;
44816;SDS011;30529;53.570;9.964;2023-01-30T02:30:21;28.83;;;15.27;;
44816;SDS011;30529;53.570;9.964;2023-01-30T02:33:10;25.17;;;15.07;;
44816;SDS011;30529;53.570;9.964;2023-01-30T02:36:00;24.73;;;15.33;;
44816;SDS011;30529;53.570;9.964;2023-01-30T02:41:21;24.93;;;15.00;;
44816;SDS011;30529;53.570;9.964;2023-01-30T02:49:08;26.03;;;15.37;;
44816;SDS011;30529;53.570;9.964;2023-01-30T02:51:41;23.20;;;14.20;;
44816;SDS011;30529;53.570;9.964;2023-01-30T02:54:10;23.40;;;14.07;;
44816;SDS011;30529;53.570;9.964;2023-01-30T02:56:47;22.77;;;14.23;;
44816;SDS011;30529;53.570;9.964;2023-01-30T02:59:50;20.87;;;12.90;;
44816;SDS011;30529;53.570;9.964;2023-01-30T03:04:58;20.63;;;12.40;;
44816;SDS011;30529;53.570;9.964;2023-01-30T03:10:37;18.43;;;11.80;;
44816;SDS011;30529;53.570;9.964;2023-01-30T03:13:28;19.20;;;11.90;;
44816;SDS011;30529;53.570;9.964;2023-01-30T03:18:46;18.70;;;10.67;;
44816;SDS011;30529;53.570;9.964;2023-01-30T03:21:13;15.17;;;10.30;;
44816;SDS011;30529;53.570;9.964;2023-01-30T03:23:39;17.80;;;11.27;;
44816;SDS011;30529;53.570;9.964;2023-01-30T03:26:07;15.60;;;9.63;;
44816;SDS011;30529;53.570;9.964;2023-01-30T03:28:39;17.03;;;10.57;;
44816;SDS011;30529;53.570;9.964;2023-01-30T03:31:06;15.40;;;9.93;;
44816;SDS011;30529;53.570;9.964;2023-01-30T03:33:33;15.80;;;10.53;;
44816;SDS011;30529;53.570;9.964;2023-01-30T03:35:59;14.03;;;9.07;;
44816;SDS011;30529;53.570;9.964;2023-01-30T03:38:25;16.63;;;10.10;;
44816;SDS011;30529;53.570;9.964;2023-01-30T03:40:52;13.70;;;9.40;;
44816;SDS011;30529;53.570;9.964;2023-01-30T03:43:18;17.40;;;8.77;;
44816;SDS011;30529;53.570;9.964;2023-01-30T03:45:44;13.07;;;9.40;;
44816;SDS011;30529;53.570;9.964;2023-01-30T03:48:10;14.37;;;9.40;;
44816;SDS011;30529;53.570;9.964;2023-01-30T03:50:36;14.17;;;8.67;;
44816;SDS011;30529;53.570;9.964;2023-01-30T03:53:02;12.77;;;8.73;;
44816;SDS011;30529;53.570;9.964;2023-01-30T03:55:28;11.47;;;8.37;;
44816;SDS011;30529;53.570;9.964;2023-01-30T03:57:57;12.83;;;8.10;;
44816;SDS011;30529;53.570;9.964;2023-01-30T04:00:23;12.03;;;7.80;;
44816;SDS011;30529;53.570;9.964;2023-01-30T04:02:49;14.03;;;9.23;;
44816;SDS011;30529;53.570;9.964;2023-01-30T04:05:15;13.90;;;8.33;;
44816;SDS011;30529;53.570;9.964;2023-01-30T04:07:41;12.10;;;8.10;;
44816;SDS011;30529;53.570;9.964;2023-01-30T04:10:07;13.43;;;8.33;;
44816;SDS011;30529;53.570;9.964;2023-01-30T04:12:34;13.30;;;7.93;;
44816;SDS011;30529;53.570;9.964;2023-01-30T04:14:59;14.93;;;7.87;;
44816;SDS011;30529;53.570;9.964;2023-01-30T04:17:25;10.33;;;6.23;;
44816;SDS011;30529;53.570;9.964;2023-01-30T04:19:51;12.63;;;6.17;;
44816;SDS011;30529;53.570;9.964;2023-01-30T04:22:17;11.97;;;6.43;;
44816;SDS011;30529;53.570;9.964;2023-01-30T04:24:43;10.97;;;5.83;;
44816;SDS011;30529;53.570;9.964;2023-01-30T04:27:09;9.87;;;4.40;;
44816;SDS011;30529;53.570;9.964;2023-01-30T04:29:35;8.23;;;3.57;;
44816;SDS011;30529;53.570;9.964;2023-01-30T04:32:01;6.93;;;3.53;;
44816;SDS011;30529;53.570;9.964;2023-01-30T04:34:27;8.77;;;3.70;;
44816;SDS011;30529;53.570;9.964;2023-01-30T04:36:53;5.63;;;3.30;;
44816;SDS011;30529;53.570;9.964;2023-01-30T04:39:19;6.10;;;3.40;;
44816;SDS011;30529;53.570;9.964;2023-01-30T04:41:45;5.80;;;3.30;;
44816;SDS011;30529;53.570;9.964;2023-01-30T04:44:11;9.93;;;3.60;;
44816;SDS011;30529;53.570;9.964;2023-01-30T04:46:37;7.83;;;3.63;;
44816;SDS011;30529;53.570;9.964;2023-01-30T04:49:03;8.63;;;3.50;;
44816;SDS011;30529;53.570;9.964;2023-01-30T04:51:29;6.50;;;3.20;;
44816;SDS011;30529;53.570;9.964;2023-01-30T04:53:55;6.50;;;3.70;;
44816;SDS011;30529;53.570;9.964;2023-01-30T04:56:21;9.17;;;3.70;;
44816;SDS011;30529;53.570;9.964;2023-01-30T04:58:47;8.60;;;3.70;;
44816;SDS011;30529;53.570;9.964;2023-01-30T05:03:40;5.23;;;2.40;;
44816;SDS011;30529;53.570;9.964;2023-01-30T05:06:06;6.63;;;2.40;;
44816;SDS011;30529;53.570;9.964;2023-01-30T05:08:32;5.93;;;2.30;;
44816;SDS011;30529;53.570;9.964;2023-01-30T05:10:58;8.60;;;2.30;;
44816;SDS011;30529;53.570;9.964;2023-01-30T05:13:24;9.07;;;2.50;;
44816;SDS011;30529;53.570;9.964;2023-01-30T05:15:50;7.40;;;2.50;;
44816;SDS011;30529;53.570;9.964;2023-01-30T05:18:16;11.20;;;2.53;;
44816;SDS011;30529;53.570;9.964;2023-01-30T05:20:42;8.37;;;2.00;;
44816;SDS011;30529;53.570;9.964;2023-01-30T05:23:08;10.43;;;2.50;;
44816;SDS011;30529;53.570;9.964;2023-01-30T05:25:34;8.43;;;2.30;;
44816;SDS011;30529;53.570;9.964;2023-01-30T05:28:00;11.20;;;2.20;;
44816;SDS011;30529;53.570;9.964;2023-01-30T05:30:26;9.00;;;2.60;;
44816;SDS011;30529;53.570;9.964;2023-01-30T05:32:52;6.13;;;2.37;;
44816;SDS011;30529;53.570;9.964;2023-01-30T05:35:18;6.90;;;1.70;;
44816;SDS011;30529;53.570;9.964;2023-01-30T05:37:48;8.13;;;1.90;;
44816;SDS011;30529;53.570;9.964;2023-01-30T05:40:15;10.80;;;2.47;;
44816;SDS011;30529;53.570;9.964;2023-01-30T05:42:41;9.93;;;2.23;;
44816;SDS011;30529;53.570;9.964;2023-01-30T05:45:07;7.57;;;2.03;;
44816;SDS011;30529;53.570;9.964;2023-01-30T05:47:33;8.67;;;2.33;;
44816;SDS011;30529;53.570;9.964;2023-01-30T05:49:59;8.23;;;1.80;;
44816;SDS011;30529;53.570;9.964;2023-01-30T05:52:27;12.00;;;2.23;;
44816;SDS011;30529;53.570;9.964;2023-01-30T05:55:16;12.50;;;2.20;;
44816;SDS011;30529;53.570;9.964;2023-01-30T05:58:36;16.20;;;3.40;;
44816;SDS011;30529;53.570;9.964;2023-01-30T06:01:06;8.60;;;2.23;;
44816;SDS011;30529;53.570;9.964;2023-01-30T06:03:34;7.57;;;2.13;;
44816;SDS011;30529;53.570;9.964;2023-01-30T06:06:04;10.17;;;1.97;;
44816;SDS011;30529;53.570;9.964;2023-01-30T06:08:31;10.40;;;1.80;;
44816;SDS011;30529;53.570;9.964;2023-01-30T06:11:01;10.60;;;2.00;;
44816;SDS011;30529;53.570;9.964;2023-01-30T06:13:29;13.67;;;2.13;;
44816;SDS011;30529;53.570;9.964;2023-01-30T06:15:55;9.53;;;1.90;;
44816;SDS011;30529;53.570;9.964;2023-01-30T06:18:21;15.97;;;2.03;;
44816;SDS011;30529;53.570;9.964;2023-01-30T06:20:48;11.87;;;1.90;;
44816;SDS011;30529;53.570;9.964;2023-01-30T06:23:16;15.07;;;2.20;;
44816;SDS011;30529;53.570;9.964;2023-01-30T06:25:43;9.87;;;2.27;;
44816;SDS011;30529;53.570;9.964;2023-01-30T06:28:13;11.83;;;2.00;;
44816;SDS011;30529;53.570;9.964;2023-01-30T06:30:40;13.93;;;2.73;;
44816;SDS011;30529;53.570;9.964;2023-01-30T06:33:06;9.57;;;1.93;;
44816;SDS011;30529;53.570;9.964;2023-01-30T06:35:33;10.93;;;1.97;;
44816;SDS011;30529;53.570;9.964;2023-01-30T06:38:01;8.80;;;2.63;;
44816;SDS011;30529;53.570;9.964;2023-01-30T06:40:27;11.07;;;2.63;;
44816;SDS011;30529;53.570;9.964;2023-01-30T06:42:53;7.80;;;1.70;;
44816;SDS011;30529;53.570;9.964;2023-01-30T06:45:19;7.77;;;2.50;;
44816;SDS011;30529;53.570;9.964;2023-01-30T06:47:46;10.93;;;2.20;;
44816;SDS011;30529;53.570;9.964;2023-01-30T06:50:13;10.20;;;1.63;;
44816;SDS011;30529;53.570;9.964;2023-01-30T06:52:44;12.30;;;2.87;;
44816;SDS011;30529;53.570;9.964;2023-01-30T06:55:12;16.27;;;3.27;;
44816;SDS011;30529;53.570;9.964;2023-01-30T06:57:40;18.70;;;3.07;;
44816;SDS011;30529;53.570;9.964;2023-01-30T07:00:08;13.00;;;2.93;;
44816;SDS011;30529;53.570;9.964;2023-01-30T07:02:39;10.77;;;2.50;;
44816;SDS011;30529;53.570;9.964;2023-01-30T07:05:05;14.77;;;2.70;;
44816;SDS011;30529;53.570;9.964;2023-01-30T07:07:32;13.10;;;2.43;;
44816;SDS011;30529;53.570;9.964;2023-01-30T07:09:59;15.07;;;2.80;;
44816;SDS011;30529;53.570;9.964;2023-01-30T07:12:26;11.97;;;2.50;;
44816;SDS011;30529;53.570;9.964;2023-01-30T07:14:52;14.83;;;3.10;;
44816;SDS011;30529;53.570;9.964;2023-01-30T07:17:19;11.53;;;2.10;;
44816;SDS011;30529;53.570;9.964;2023-01-30T07:19:46;9.67;;;2.17;;
44816;SDS011;30529;53.570;9.964;2023-01-30T07:22:13;12.50;;;2.40;;
44816;SDS011;30529;53.570;9.964;2023-01-30T07:24:39;14.87;;;2.40;;
44816;SDS011;30529;53.570;9.964;2023-01-30T07:27:13;13.10;;;2.37;;
44816;SDS011;30529;53.570;9.964;2023-01-30T07:29:39;19.97;;;2.67;;
44816;SDS011;30529;53.570;9.964;2023-01-30T07:32:06;10.87;;;2.70;;
44816;SDS011;30529;53.570;9.964;2023-01-30T07:34:37;14.73;;;3.07;;
44816;SDS011;30529;53.570;9.964;2023-01-30T07:37:04;14.50;;;2.70;;
44816;SDS011;30529;53.570;9.964;2023-01-30T07:39:30;15.77;;;2.10;;
44816;SDS011;30529;53.570;9.964;2023-01-30T07:41:56;11.27;;;2.50;;
44816;SDS011;30529;53.570;9.964;2023-01-30T07:44:25;13.13;;;3.13;;
44816;SDS011;30529;53.570;9.964;2023-01-30T07:46:51;21.60;;;3.23;;
44816;SDS011;30529;53.570;9.964;2023-01-30T07:49:17;17.20;;;3.23;;
44816;SDS011;30529;53.570;9.964;2023-01-30T07:51:48;29.73;;;3.60;;
44816;SDS011;30529;53.570;9.964;2023-01-30T07:54:15;18.80;;;3.47;;
44816;SDS011;30529;53.570;9.964;2023-01-30T07:56:41;31.07;;;4.27;;
44816;SDS011;30529;53.570;9.964;2023-01-30T07:59:07;27.17;;;4.77;;
44816;SDS011;30529;53.570;9.964;2023-01-30T08:01:35;30.83;;;4.37;;
44816;SDS011;30529;53.570;9.964;2023-01-30T08:04:01;30.03;;;5.20;;
44816;SDS011;30529;53.570;9.964;2023-01-30T08:06:28;19.23;;;3.80;;
44816;SDS011;30529;53.570;9.964;2023-01-30T08:08:54;22.60;;;5.00;;
44816;SDS011;30529;53.570;9.964;2023-01-30T08:11:20;21.17;;;4.37;;
44816;SDS011;30529;53.570;9.964;2023-01-30T08:13:46;19.67;;;4.60;;
44816;SDS011;30529;53.570;9.964;2023-01-30T08:16:12;21.70;;;4.13;;
44816;SDS011;30529;53.570;9.964;2023-01-30T08:18:38;20.10;;;3.67;;
44816;SDS011;30529;53.570;9.964;2023-01-30T08:21:05;24.83;;;4.73;;
44816;SDS011;30529;53.570;9.964;2023-01-30T08:23:32;23.73;;;4.20;;
44816;SDS011;30529;53.570;9.964;2023-01-30T08:26:00;26.27;;;5.27;;
44816;SDS011;30529;53.570;9.964;2023-01-30T08:28:28;22.30;;;4.43;;
44816;SDS011;30529;53.570;9.964;2023-01-30T08:30:54;20.67;;;3.97;;
44816;SDS011;30529;53.570;9.964;2023-01-30T08:33:21;22.17;;;4.50;;
44816;SDS011;30529;53.570;9.964;2023-01-30T08:35:51;26.20;;;5.07;;
44816;SDS011;30529;53.570;9.964;2023-01-30T08:38:17;27.60;;;3.83;;
44816;SDS011;30529;53.570;9.964;2023-01-30T08:40:44;23.30;;;4.90;;
44816;SDS011;30529;53.570;9.964;2023-01-30T08:43:15;26.00;;;5.73;;
44816;SDS011;30529;53.570;9.964;2023-01-30T08:46:10;24.03;;;4.67;;
44816;SDS011;30529;53.570;9.964;2023-01-30T08:48:41;28.73;;;4.63;;
44816;SDS011;30529;53.570;9.964;2023-01-30T08:51:13;13.37;;;3.40;;
44816;SDS011;30529;53.570;9.964;2023-01-30T08:53:42;19.20;;;4.10;;
44816;SDS011;30529;53.570;9.964;2023-01-30T08:56:08;25.03;;;4.67;;
44816;SDS011;30529;53.570;9.964;2023-01-30T08:58:35;27.30;;;4.67;;
44816;SDS011;30529;53.570;9.964;2023-01-30T09:01:05;19.50;;;4.70;;
44816;SDS011;30529;53.570;9.964;2023-01-30T09:03:31;23.30;;;4.97;;
44816;SDS011;30529;53.570;9.964;2023-01-30T09:05:57;24.87;;;4.40;;
44816;SDS011;30529;53.570;9.964;2023-01-30T09:08:23;25.53;;;4.53;;
44816;SDS011;30529;53.570;9.964;2023-01-30T09:10:50;30.27;;;5.23;;
44816;SDS011;30529;53.570;9.964;2023-01-30T09:13:16;21.97;;;4.80;;
44816;SDS011;30529;53.570;9.964;2023-01-30T09:15:42;18.17;;;4.47;;
44816;SDS011;30529;53.570;9.964;2023-01-30T09:18:08;20.33;;;4.33;;
44816;SDS011;30529;53.570;9.964;2023-01-30T09:20:34;19.57;;;4.07;;
44816;SDS011;30529;53.570;9.964;2023-01-30T09:23:00;23.53;;;4.03;;
44816;SDS011;30529;53.570;9.964;2023-01-30T09:25:27;17.23;;;4.33;;
44816;SDS011;30529;53.570;9.964;2023-01-30T09:27:55;24.03;;;4.60;;
44816;SDS011;30529;53.570;9.964;2023-01-30T09:30:21;22.47;;;3.80;;
44816;SDS011;30529;53.570;9.964;2023-01-30T09:32:47;22.30;;;3.60;;
44816;SDS011;30529;53.570;9.964;2023-01-30T09:35:13;26.00;;;7.23;;
44816;SDS011;30529;53.570;9.964;2023-01-30T09:37:47;27.47;;;4.00;;
44816;SDS011;30529;53.570;9.964;2023-01-30T09:40:17;24.13;;;4.27;;
44816;SDS011;30529;53.570;9.964;2023-01-30T09:45:42;23.93;;;5.87;;
44816;SDS011;30529;53.570;9.964;2023-01-30T09:55:57;22.80;;;5.40;;
44816;SDS011;30529;53.570;9.964;2023-01-30T10:03:48;21.53;;;4.23;;
44816;SDS011;30529;53.570;9.964;2023-01-30T10:22:59;15.90;;;2.87;;
44816;SDS011;30529;53.570;9.964;2023-01-30T10:26:09;15.87;;;3.30;;
44816;SDS011;30529;53.570;9.964;2023-01-30T10:28:55;15.90;;;2.80;;
44816;SDS011;30529;53.570;9.964;2023-01-30T10:31:35;9.33;;;2.20;;
44816;SDS011;30529;53.570;9.964;2023-01-30T10:34:11;9.60;;;2.80;;
44816;SDS011;30529;53.570;9.964;2023-01-30T10:40:13;8.77;;;2.10;;
44816;SDS011;30529;53.570;9.964;2023-01-30T10:42:49;9.93;;;2.47;;
44816;SDS011;30529;53.570;9.964;2023-01-30T10:45:27;16.40;;;2.87;;
44816;SDS011;30529;53.570;9.964;2023-01-30T10:51:03;15.17;;;3.13;;
44816;SDS011;30529;53.570;9.964;2023-01-30T10:53:39;19.33;;;3.57;;
44816;SDS011;30529;53.570;9.964;2023-01-30T10:56:19;15.73;;;3.03;;
44816;SDS011;30529;53.570;9.964;2023-01-30T11:01:29;15.10;;;3.23;;
44816;SDS011;30529;53.570;9.964;2023-01-30T11:04:03;23.47;;;2.77;;
44816;SDS011;30529;53.570;9.964;2023-01-30T11:06:38;18.80;;;3.30;;
44816;SDS011;30529;53.570;9.964;2023-01-30T11:09:07;10.53;;;2.07;;
44816;SDS011;30529;53.570;9.964;2023-01-30T11:11:41;11.30;;;2.60;;
44816;SDS011;30529;53.570;9.964;2023-01-30T11:14:21;11.00;;;1.87;;
44816;SDS011;30529;53.570;9.964;2023-01-30T11:16:47;7.93;;;1.83;;
44816;SDS011;30529;53.570;9.964;2023-01-30T11:19:17;7.13;;;2.20;;
44816;SDS011;30529;53.570;9.964;2023-01-30T11:21:51;9.23;;;1.80;;
44816;SDS011;30529;53.570;9.964;2023-01-30T11:24:21;7.60;;;2.47;;
44816;SDS011;30529;53.570;9.964;2023-01-30T11:26:56;12.40;;;1.90;;
44816;SDS011;30529;53.570;9.964;2023-01-30T11:29:40;7.40;;;1.63;;
44816;SDS011;30529;53.570;9.964;2023-01-30T11:32:24;7.00;;;2.20;;
44816;SDS011;30529;53.570;9.964;2023-01-30T11:37:33;7.63;;;1.50;;
44816;SDS011;30529;53.570;9.964;2023-01-30T11:42:43;7.50;;;1.67;;
44816;SDS011;30529;53.570;9.964;2023-01-30T11:45:11;7.93;;;1.70;;
44816;SDS011;30529;53.570;9.964;2023-01-30T11:47:38;6.80;;;1.93;;
44816;SDS011;30529;53.570;9.964;2023-01-30T11:50:14;10.20;;;1.87;;
44816;SDS011;30529;53.570;9.964;2023-01-30T11:52:43;11.03;;;1.93;;
44816;SDS011;30529;53.570;9.964;2023-01-30T11:55:14;7.53;;;1.83;;
44816;SDS011;30529;53.570;9.964;2023-01-30T11:57:51;7.17;;;1.53;;
44816;SDS011;30529;53.570;9.964;2023-01-30T12:00:45;3.60;;;2.20;;
44816;SDS011;30529;53.570;9.964;2023-01-30T12:03:14;8.07;;;1.60;;
44816;SDS011;30529;53.570;9.964;2023-01-30T12:05:43;10.07;;;2.00;;
44816;SDS011;30529;53.570;9.964;2023-01-30T12:08:13;9.20;;;1.93;;
44816;SDS011;30529;53.570;9.964;2023-01-30T12:10:45;15.17;;;2.73;;
44816;SDS011;30529;53.570;9.964;2023-01-30T12:13:31;10.47;;;2.50;;
44816;SDS011;30529;53.570;9.964;2023-01-30T12:21:25;12.43;;;2.33;;
44816;SDS011;30529;53.570;9.964;2023-01-30T12:24:02;13.43;;;3.07;;
44816;SDS011;30529;53.570;9.964;2023-01-30T12:26:45;20.23;;;3.30;;
44816;SDS011;30529;53.570;9.964;2023-01-30T12:29:30;11.40;;;2.57;;
44816;SDS011;30529;53.570;9.964;2023-01-30T12:34:31;8.23;;;1.90;;
44816;SDS011;30529;53.570;9.964;2023-01-30T12:39:42;8.40;;;1.70;;
44816;SDS011;30529;53.570;9.964;2023-01-30T12:45:11;15.97;;;3.10;;
44816;SDS011;30529;53.570;9.964;2023-01-30T12:47:52;10.00;;;2.80;;
44816;SDS011;30529;53.570;9.964;2023-01-30T12:50:38;17.80;;;3.47;;
44816;SDS011;30529;53.570;9.964;2023-01-30T13:04:36;22.00;;;3.80;;
44816;SDS011;30529;53.570;9.964;2023-01-30T13:15:51;30.07;;;4.77;;
44816;SDS011;30529;53.570;9.964;2023-01-30T13:18:47;23.83;;;4.00;;
44816;SDS011;30529;53.570;9.964;2023-01-30T13:21:22;26.80;;;4.63;;
44816;SDS011;30529;53.570;9.964;2023-01-30T13:24:04;17.77;;;4.67;;
44816;SDS011;30529;53.570;9.964;2023-01-30T13:26:44;19.10;;;3.93;;
44816;SDS011;30529;53.570;9.964;2023-01-30T13:29:13;24.13;;;4.43;;
44816;SDS011;30529;53.570;9.964;2023-01-30T13:38:48;19.10;;;3.57;;
44816;SDS011;30529;53.570;9.964;2023-01-30T13:41:54;21.50;;;3.90;;
44816;SDS011;30529;53.570;9.964;2023-01-30T13:44:26;19.63;;;3.53;;
44816;SDS011;30529;53.570;9.964;2023-01-30T14:01:21;15.60;;;4.03;;
44816;SDS011;30529;53.570;9.964;2023-01-30T14:03:51;19.80;;;4.33;;
44816;SDS011;30529;53.570;9.964;2023-01-30T14:06:31;16.97;;;4.20;;
44816;SDS011;30529;53.570;9.964;2023-01-30T14:09:04;15.47;;;3.57;;
44816;SDS011;30529;53.570;9.964;2023-01-30T14:11:55;35.73;;;6.40;;
44816;SDS011;30529;53.570;9.964;2023-01-30T14:17:09;21.53;;;3.90;;
44816;SDS011;30529;53.570;9.964;2023-01-30T14:22:19;19.67;;;3.93;;
44816;SDS011;30529;53.570;9.964;2023-01-30T14:30:45;16.73;;;4.20;;
44816;SDS011;30529;53.570;9.964;2023-01-30T14:35:45;22.80;;;4.40;;
44816;SDS011;30529;53.570;9.964;2023-01-30T14:38:19;20.37;;;3.70;;
44816;SDS011;30529;53.570;9.964;2023-01-30T14:53:57;15.60;;;3.90;;
44816;SDS011;30529;53.570;9.964;2023-01-30T14:59:06;15.43;;;3.27;;
44816;SDS011;30529;53.570;9.964;2023-01-30T15:01:51;31.30;;;5.57;;
44816;SDS011;30529;53.570;9.964;2023-01-30T15:04:18;20.03;;;3.63;;
44816;SDS011;30529;53.570;9.964;2023-01-30T15:06:45;22.67;;;4.03;;
44816;SDS011;30529;53.570;9.964;2023-01-30T15:09:16;13.57;;;3.23;;
44816;SDS011;30529;53.570;9.964;2023-01-30T15:11:44;20.33;;;4.77;;
44816;SDS011;30529;53.570;9.964;2023-01-30T15:14:21;25.63;;;4.90;;
44816;SDS011;30529;53.570;9.964;2023-01-30T15:19:45;21.67;;;4.17;;
44816;SDS011;30529;53.570;9.964;2023-01-30T15:26:17;19.27;;;4.53;;
44816;SDS011;30529;53.570;9.964;2023-01-30T15:28:35;18.63;;;3.73;;
44816;SDS011;30529;53.570;9.964;2023-01-30T15:31:24;23.27;;;4.63;;
44816;SDS011;30529;53.570;9.964;2023-01-30T15:33:52;27.07;;;5.43;;
44816;SDS011;30529;53.570;9.964;2023-01-30T15:42:48;19.90;;;4.00;;
44816;SDS011;30529;53.570;9.964;2023-01-30T15:49:19;28.93;;;5.47;;
44816;SDS011;30529;53.570;9.964;2023-01-30T15:52:11;23.53;;;4.67;;
44816;SDS011;30529;53.570;9.964;2023-01-30T15:54:40;26.13;;;5.07;;
44816;SDS011;30529;53.570;9.964;2023-01-30T15:57:23;23.03;;;5.90;;
44816;SDS011;30529;53.570;9.964;2023-01-30T15:59:54;25.20;;;4.20;;
44816;SDS011;30529;53.570;9.964;2023-01-30T16:05:03;31.97;;;5.63;;
44816;SDS011;30529;53.570;9.964;2023-01-30T16:13:59;25.73;;;5.80;;
44816;SDS011;30529;53.570;9.964;2023-01-30T16:17:01;19.00;;;4.30;;
44816;SDS011;30529;53.570;9.964;2023-01-30T16:19:31;28.80;;;4.80;;
44816;SDS011;30529;53.570;9.964;2023-01-30T16:22:04;27.90;;;4.90;;
44816;SDS011;30529;53.570;9.964;2023-01-30T16:24:41;22.43;;;4.67;;
44816;SDS011;30529;53.570;9.964;2023-01-30T16:27:15;32.23;;;4.43;;
44816;SDS011;30529;53.570;9.964;2023-01-30T16:29:46;27.03;;;4.40;;
44816;SDS011;30529;53.570;9.964;2023-01-30T16:32:17;21.13;;;4.23;;
44816;SDS011;30529;53.570;9.964;2023-01-30T16:37:50;30.83;;;5.50;;
44816;SDS011;30529;53.570;9.964;2023-01-30T16:43:00;24.93;;;4.30;;
44816;SDS011;30529;53.570;9.964;2023-01-30T16:53:23;27.47;;;5.60;;
44816;SDS011;30529;53.570;9.964;2023-01-30T16:58:43;19.23;;;4.03;;
44816;SDS011;30529;53.570;9.964;2023-01-30T17:01:13;22.13;;;3.93;;
44816;SDS011;30529;53.570;9.964;2023-01-30T17:03:39;28.87;;;4.77;;
44816;SDS011;30529;53.570;9.964;2023-01-30T17:06:50;29.87;;;4.60;;
44816;SDS011;30529;53.570;9.964;2023-01-30T17:09:05;16.30;;;3.77;;
44816;SDS011;30529;53.570;9.964;2023-01-30T17:11:56;20.30;;;3.40;;
44816;SDS011;30529;53.570;9.964;2023-01-30T17:14:23;18.93;;;3.47;;
44816;SDS011;30529;53.570;9.964;2023-01-30T17:17:04;16.17;;;4.53;;
44816;SDS011;30529;53.570;9.964;2023-01-30T17:19:32;20.27;;;4.37;;
44816;SDS011;30529;53.570;9.964;2023-01-30T17:22:00;24.33;;;3.97;;
44816;SDS011;30529;53.570;9.964;2023-01-30T17:24:36;15.20;;;3.67;;
44816;SDS011;30529;53.570;9.964;2023-01-30T17:27:04;13.50;;;3.83;;
44816;SDS011;30529;53.570;9.964;2023-01-30T17:29:31;20.40;;;4.70;;
44816;SDS011;30529;53.570;9.964;2023-01-30T17:32:00;16.63;;;4.83;;
44816;SDS011;30529;53.570;9.964;2023-01-30T17:34:42;20.67;;;4.40;;
44816;SDS011;30529;53.570;9.964;2023-01-30T17:37:10;19.57;;;3.77;;
44816;SDS011;30529;53.570;9.964;2023-01-30T17:40:02;14.80;;;2.93;;
44816;SDS011;30529;53.570;9.964;2023-01-30T17:42:45;14.90;;;2.90;;
44816;SDS011;30529;53.570;9.964;2023-01-30T17:50:57;10.90;;;2.77;;
44816;SDS011;30529;53.570;9.964;2023-01-30T17:53:23;15.07;;;2.50;;
44816;SDS011;30529;53.570;9.964;2023-01-30T18:03:56;12.57;;;2.90;;
44816;SDS011;30529;53.570;9.964;2023-01-30T18:06:25;16.13;;;2.83;;
44816;SDS011;30529;53.570;9.964;2023-01-30T18:08:54;18.00;;;3.67;;
44816;SDS011;30529;53.570;9.964;2023-01-30T18:11:20;10.10;;;3.17;;
44816;SDS011;30529;53.570;9.964;2023-01-30T18:13:46;22.10;;;4.47;;
44816;SDS011;30529;53.570;9.964;2023-01-30T18:16:33;18.53;;;3.10;;
44816;SDS011;30529;53.570;9.964;2023-01-30T18:19:04;20.93;;;3.90;;
44816;SDS011;30529;53.570;9.964;2023-01-30T18:21:33;19.87;;;4.27;;
44816;SDS011;30529;53.570;9.964;2023-01-30T18:24:01;20.03;;;3.27;;
44816;SDS011;30529;53.570;9.964;2023-01-30T18:26:27;19.80;;;3.80;;
44816;SDS011;30529;53.570;9.964;2023-01-30T18:28:54;24.37;;;4.90;;
44816;SDS011;30529;53.570;9.964;2023-01-30T18:31:20;24.83;;;4.83;;
44816;SDS011;30529;53.570;9.964;2023-01-30T18:33:49;23.40;;;3.53;;